createdAt,value
2022-09-28T00:01:25.232Z,8.52
2022-09-28T00:03:57.468Z,8.45
2022-09-28T00:06:26.542Z,8.35
2022-09-28T00:08:54.575Z,8.31
2022-09-28T00:11:26.626Z,8.16
2022-09-28T00:13:57.816Z,8.12
2022-09-28T00:16:31.425Z,8.09
2022-09-28T00:19:02.098Z,8.09
2022-09-28T00:21:32.582Z,8.07
2022-09-28T00:24:14.984Z,8.03
2022-09-28T00:26:54.123Z,8.00
2022-09-28T00:29:26.886Z,8.03
2022-09-28T00:31:59.867Z,8.04
2022-09-28T00:34:28.353Z,8.11
2022-09-28T00:36:55.930Z,8.10
2022-09-28T00:39:27.073Z,8.14
2022-09-28T00:41:56.039Z,8.17
2022-09-28T00:44:32.636Z,8.17
2022-09-28T00:47:21.670Z,8.17
2022-09-28T00:50:15.724Z,8.20
2022-09-28T00:53:01.054Z,8.25
2022-09-28T00:55:53.295Z,8.44
2022-09-28T00:58:24.803Z,8.80
2022-09-28T01:00:53.570Z,8.98
2022-09-28T01:03:22.155Z,9.11
2022-09-28T01:05:52.626Z,9.19
2022-09-28T01:08:23.273Z,9.27
2022-09-28T01:10:53.454Z,9.36
2022-09-28T01:13:22.631Z,9.49
2022-09-28T01:16:03.888Z,9.56
2022-09-28T01:18:40.693Z,9.56
2022-09-28T01:21:20.739Z,9.61
2022-09-28T01:24:03.491Z,9.66
2022-09-28T01:26:31.412Z,9.65
2022-09-28T01:29:28.274Z,9.64
2022-09-28T01:32:13.805Z,9.70
2022-09-28T01:35:05.930Z,9.80
2022-09-28T01:37:45.761Z,9.79
2022-09-28T01:40:15.963Z,9.84
2022-09-28T01:42:46.067Z,9.86
2022-09-28T01:45:22.671Z,9.90
2022-09-28T01:47:51.858Z,9.93
2022-09-28T01:50:23.489Z,9.91
2022-09-28T01:52:57.182Z,9.92
2022-09-28T01:55:30.852Z,9.92
2022-09-28T01:58:04.330Z,9.93
2022-09-28T02:00:33.555Z,9.88
2022-09-28T02:03:10.936Z,9.87
2022-09-28T02:05:41.545Z,9.87
2022-09-28T02:08:28.412Z,9.95
2022-09-28T02:11:14.141Z,10.01
2022-09-28T02:13:51.057Z,10.06
2022-09-28T02:16:39.136Z,10.12
2022-09-28T02:19:11.129Z,10.10
2022-09-28T02:21:47.578Z,10.15
2022-09-28T02:24:25.371Z,10.20
2022-09-28T02:26:55.905Z,10.27
2022-09-28T02:29:24.718Z,10.31
2022-09-28T02:31:52.977Z,10.36
2022-09-28T02:34:20.829Z,10.29
2022-09-28T02:36:48.756Z,10.31
2022-09-28T02:39:19.076Z,10.35
2022-09-28T02:41:55.946Z,10.31
2022-09-28T02:44:47.109Z,10.32
2022-09-28T02:47:51.902Z,10.25
2022-09-28T02:50:43.318Z,10.27
2022-09-28T02:53:26.053Z,10.26
2022-09-28T02:56:28.933Z,10.23
2022-09-28T02:59:32.087Z,10.22
2022-09-28T03:02:08.674Z,10.17
2022-09-28T03:04:53.135Z,10.10
2022-09-28T03:07:39.279Z,10.03
2022-09-28T03:10:14.898Z,9.98
2022-09-28T03:12:44.394Z,9.96
2022-09-28T03:15:14.637Z,9.94
2022-09-28T03:17:42.112Z,9.93
2022-09-28T03:20:13.502Z,9.93
2022-09-28T03:22:42.275Z,9.94
2022-09-28T03:25:10.281Z,9.89
2022-09-28T03:27:41.571Z,9.87
2022-09-28T03:30:10.247Z,9.85
2022-09-28T03:32:39.279Z,9.82
2022-09-28T03:35:08.842Z,9.79
2022-09-28T03:37:36.871Z,9.76
2022-09-28T03:40:05.430Z,9.71
2022-09-28T03:42:32.921Z,9.68
2022-09-28T03:45:00.403Z,9.62
2022-09-28T03:47:27.924Z,9.57
2022-09-28T03:49:55.448Z,9.52
2022-09-28T03:52:22.969Z,9.48
2022-09-28T03:54:51.745Z,9.45
2022-09-28T03:57:19.237Z,9.43
2022-09-28T03:59:46.741Z,9.42
2022-09-28T04:02:14.326Z,9.36
2022-09-28T04:04:42.953Z,9.36
2022-09-28T04:07:10.477Z,9.35
2022-09-28T04:09:37.980Z,9.32
2022-09-28T04:12:05.610Z,9.30
2022-09-28T04:14:33.298Z,9.29
2022-09-28T04:17:00.829Z,9.27
2022-09-28T04:19:28.627Z,9.26
2022-09-28T04:21:56.435Z,9.23
2022-09-28T04:24:25.132Z,9.19
2022-09-28T04:26:52.639Z,9.21
2022-09-28T04:29:19.701Z,9.23
2022-09-28T04:31:51.790Z,9.24
2022-09-28T04:34:21.694Z,9.22
2022-09-28T04:36:52.262Z,9.19
2022-09-28T04:39:20.137Z,9.15
2022-09-28T04:41:49.657Z,9.12
2022-09-28T04:44:17.236Z,9.10
2022-09-28T04:46:47.127Z,9.03
2022-09-28T04:49:14.953Z,8.98
2022-09-28T04:51:42.524Z,8.95
2022-09-28T04:54:10.057Z,8.96
2022-09-28T04:56:37.800Z,8.95
2022-09-28T04:59:07.593Z,8.96
2022-09-28T05:01:35.141Z,9.01
2022-09-28T05:04:02.765Z,9.02
2022-09-28T05:06:31.802Z,9.01
2022-09-28T05:08:59.644Z,8.98
2022-09-28T05:11:27.247Z,8.90
2022-09-28T05:13:55.033Z,8.79
2022-09-28T05:16:22.875Z,8.72
2022-09-28T05:18:50.381Z,8.69
2022-09-28T05:21:20.450Z,8.60
2022-09-28T05:23:51.292Z,8.50
2022-09-28T05:26:19.266Z,8.39
2022-09-28T05:28:48.100Z,8.32
2022-09-28T05:31:15.910Z,8.24
2022-09-28T05:33:44.316Z,8.20
2022-09-28T05:36:12.665Z,8.20
2022-09-28T05:38:40.194Z,8.20
2022-09-28T05:41:07.792Z,8.24
2022-09-28T05:43:36.283Z,8.27
2022-09-28T05:46:03.852Z,8.30
2022-09-28T05:48:31.647Z,8.34
2022-09-28T05:50:59.756Z,8.46
2022-09-28T05:53:27.388Z,8.53
2022-09-28T05:56:00.188Z,8.63
2022-09-28T05:58:30.268Z,8.65
2022-09-28T06:00:59.047Z,8.70
2022-09-28T06:03:27.687Z,8.75
2022-09-28T06:05:55.692Z,9.02
2022-09-28T06:08:23.501Z,9.15
2022-09-28T06:10:51.055Z,9.25
2022-09-28T06:13:18.570Z,9.40
2022-09-28T06:15:48.678Z,9.47
2022-09-28T06:18:18.479Z,9.57
2022-09-28T06:20:46.046Z,9.70
2022-09-28T06:23:14.358Z,9.79
2022-09-28T06:25:44.371Z,10.02
2022-09-28T06:28:16.563Z,10.22
2022-09-28T06:30:45.194Z,10.26
2022-09-28T06:33:17.425Z,10.55
2022-09-28T06:35:44.970Z,10.62
2022-09-28T06:38:12.936Z,10.74
2022-09-28T06:40:40.555Z,10.77
2022-09-28T06:43:15.099Z,10.87
2022-09-28T06:45:43.973Z,11.12
2022-09-28T06:48:12.313Z,11.29
2022-09-28T06:50:43.469Z,11.56
2022-09-28T06:53:14.644Z,11.68
2022-09-28T06:55:48.357Z,11.98
2022-09-28T06:58:20.825Z,12.20
2022-09-28T07:00:53.746Z,12.74
2022-09-28T07:03:23.374Z,13.03
2022-09-28T07:05:54.031Z,13.30
2022-09-28T07:08:24.780Z,13.45
2022-09-28T07:10:56.289Z,14.02
2022-09-28T07:13:48.612Z,14.56
2022-09-28T07:16:17.144Z,15.34
2022-09-28T07:18:45.033Z,16.51
2022-09-28T07:21:24.222Z,17.00
2022-09-28T07:23:56.350Z,18.36
2022-09-28T07:26:27.293Z,19.47
2022-09-28T07:28:56.286Z,20.58
2022-09-28T07:31:26.451Z,21.23
2022-09-28T07:33:54.128Z,20.90
2022-09-28T07:36:22.726Z,20.68
2022-09-28T07:38:50.395Z,20.82
2022-09-28T07:41:32.125Z,21.35
2022-09-28T07:44:06.115Z,22.04
2022-09-28T07:46:35.579Z,21.94
2022-09-28T07:49:09.744Z,22.62
2022-09-28T07:51:39.825Z,22.92
2022-09-28T07:54:09.635Z,22.30
2022-09-28T07:56:37.205Z,22.80
2022-09-28T07:59:04.724Z,22.27
2022-09-28T08:01:33.490Z,22.93
2022-09-28T08:04:01.170Z,22.35
2022-09-28T08:06:33.652Z,22.72
2022-09-28T08:09:01.765Z,23.21
2022-09-28T08:11:29.391Z,21.61
2022-09-28T08:14:02.270Z,22.02
2022-09-28T08:16:32.534Z,23.00
2022-09-28T08:19:00.414Z,23.62
2022-09-28T08:21:45.616Z,24.50
2022-09-28T08:24:18.097Z,24.68
2022-09-28T08:26:46.039Z,24.55
2022-09-28T08:29:17.041Z,24.38
2022-09-28T08:31:44.575Z,23.92
2022-09-28T08:34:12.216Z,24.63
2022-09-28T08:36:39.950Z,24.47
2022-09-28T08:39:07.474Z,24.89
2022-09-28T08:41:51.523Z,25.08
2022-09-28T08:44:41.117Z,23.49
2022-09-28T08:47:37.819Z,24.18
2022-09-28T08:50:14.216Z,22.80
2022-09-28T08:52:41.755Z,23.21
2022-09-28T08:55:23.393Z,21.82
2022-09-28T08:58:06.516Z,22.63
2022-09-28T09:00:43.625Z,22.86
2022-09-28T09:03:23.770Z,22.67
2022-09-28T09:06:18.647Z,22.17
2022-09-28T09:09:11.070Z,20.73
2022-09-28T09:11:48.825Z,21.67
2022-09-28T09:14:40.908Z,22.26
2022-09-28T09:17:37.970Z,22.75
2022-09-28T09:20:38.834Z,23.53
2022-09-28T09:23:18.793Z,23.41
2022-09-28T09:25:55.996Z,23.25
2022-09-28T09:28:36.290Z,21.84
2022-09-28T09:31:22.754Z,22.93
2022-09-28T09:34:20.741Z,22.41
2022-09-28T09:37:25.651Z,22.89
2022-09-28T09:40:11.914Z,21.77
2022-09-28T09:43:10.859Z,20.81
2022-09-28T09:46:16.123Z,21.53
2022-09-28T09:49:09.253Z,21.37
2022-09-28T09:51:48.683Z,20.32
2022-09-28T09:54:39.114Z,18.92
2022-09-28T09:57:17.505Z,18.95
2022-09-28T09:59:46.609Z,19.71
2022-09-28T10:02:37.015Z,20.33
2022-09-28T10:05:30.610Z,19.44
2022-09-28T10:08:12.007Z,20.54
2022-09-28T10:11:12.801Z,19.89
2022-09-28T10:13:41.139Z,18.60
2022-09-28T10:16:08.760Z,17.99
2022-09-28T10:18:37.358Z,17.86
2022-09-28T10:21:05.409Z,17.56
2022-09-28T10:23:37.229Z,17.75
2022-09-28T10:26:12.464Z,18.78
2022-09-28T10:28:55.389Z,19.68
2022-09-28T10:31:36.134Z,19.27
2022-09-28T10:34:06.917Z,19.68
2022-09-28T10:36:49.934Z,20.54
2022-09-28T10:39:38.848Z,20.83
2022-09-28T10:42:10.081Z,21.20
2022-09-28T10:45:13.097Z,20.81
2022-09-28T10:47:47.116Z,19.95
2022-09-28T10:50:26.511Z,19.06
2022-09-28T10:52:54.397Z,19.99
2022-09-28T10:55:21.833Z,20.24
2022-09-28T10:57:52.937Z,19.72
2022-09-28T11:00:41.189Z,18.80
2022-09-28T11:03:21.646Z,18.01
2022-09-28T11:06:08.754Z,17.90
2022-09-28T11:08:42.718Z,17.39
2022-09-28T11:11:17.087Z,17.78
2022-09-28T11:13:52.602Z,17.53
2022-09-28T11:16:23.219Z,18.06
2022-09-28T11:18:51.269Z,19.21
2022-09-28T11:21:23.931Z,18.67
2022-09-28T11:24:01.306Z,19.21
2022-09-28T11:26:36.705Z,19.84
2022-09-28T11:29:04.740Z,20.57
2022-09-28T11:31:32.685Z,20.71
2022-09-28T11:34:15.576Z,21.58
2022-09-28T11:37:18.587Z,21.39
2022-09-28T11:40:19.000Z,21.42
2022-09-28T11:42:49.439Z,22.35
2022-09-28T11:45:54.731Z,21.59
2022-09-28T11:48:26.630Z,20.30
2022-09-28T11:51:12.370Z,19.59
2022-09-28T11:53:46.333Z,19.09
2022-09-28T11:56:21.440Z,19.49
2022-09-28T11:58:59.980Z,19.75
2022-09-28T12:01:27.489Z,19.89
2022-09-28T12:04:12.720Z,19.93
2022-09-28T12:06:47.525Z,20.59
2022-09-28T12:09:47.667Z,21.09
2022-09-28T12:12:25.441Z,20.68
2022-09-28T12:14:59.397Z,20.71
2022-09-28T12:17:42.985Z,21.33
2022-09-28T12:20:27.976Z,20.24
2022-09-28T12:23:01.242Z,20.24
2022-09-28T12:25:34.164Z,19.61
2022-09-28T12:28:07.509Z,20.05
2022-09-28T12:30:40.618Z,19.70
2022-09-28T12:33:17.817Z,19.30
2022-09-28T12:36:03.596Z,18.84
2022-09-28T12:39:30.798Z,19.29
2022-09-28T12:42:01.153Z,19.55
2022-09-28T12:44:43.677Z,19.73
2022-09-28T12:47:35.738Z,19.28
2022-09-28T12:53:03.073Z,20.12
2022-09-28T12:55:39.859Z,19.21
2022-09-28T12:58:27.618Z,18.71
2022-09-28T13:01:17.124Z,18.68
2022-09-28T13:04:12.771Z,17.84
2022-09-28T13:06:56.333Z,17.71
2022-09-28T13:09:40.120Z,17.34
2022-09-28T13:12:31.986Z,17.06
2022-09-28T13:15:09.881Z,17.56
2022-09-28T13:17:41.509Z,17.31
2022-09-28T13:20:26.167Z,17.14
2022-09-28T13:23:24.298Z,16.92
2022-09-28T13:26:11.199Z,16.78
2022-09-28T13:28:40.865Z,16.84
2022-09-28T13:31:10.137Z,16.87
2022-09-28T13:33:41.393Z,17.11
2022-09-28T13:36:26.863Z,17.37
2022-09-28T13:38:56.129Z,17.45
2022-09-28T13:41:40.385Z,17.43
2022-09-28T13:44:13.900Z,17.27
2022-09-28T13:46:50.718Z,17.47
2022-09-28T13:49:48.353Z,17.60
2022-09-28T13:52:34.629Z,17.90
2022-09-28T13:55:29.926Z,17.91
2022-09-28T13:58:04.739Z,17.59
2022-09-28T14:00:57.808Z,17.37
2022-09-28T14:03:47.176Z,17.43
2022-09-28T14:06:23.533Z,17.20
2022-09-28T14:08:57.940Z,17.11
2022-09-28T14:11:28.233Z,17.19
2022-09-28T14:14:03.928Z,17.09
2022-09-28T14:16:35.901Z,17.00
2022-09-28T14:19:08.132Z,16.94
2022-09-28T14:21:47.709Z,16.87
2022-09-28T14:24:39.389Z,16.80
2022-09-28T14:27:32.471Z,16.74
2022-09-28T14:30:09.331Z,16.74
2022-09-28T14:32:38.795Z,16.84
2022-09-28T14:35:19.015Z,16.74
2022-09-28T14:38:13.744Z,16.69
2022-09-28T14:41:10.667Z,16.67
2022-09-28T14:43:47.282Z,16.55
2022-09-28T14:46:14.917Z,16.45
2022-09-28T14:49:02.892Z,16.41
2022-09-28T14:51:30.662Z,16.37
2022-09-28T14:54:04.129Z,16.30
2022-09-28T14:56:40.025Z,16.28
2022-09-28T14:59:18.345Z,16.25
2022-09-28T15:01:54.271Z,16.20
2022-09-28T15:04:22.423Z,16.17
2022-09-28T15:06:53.473Z,16.12
2022-09-28T15:09:39.150Z,16.09
2022-09-28T15:12:18.595Z,16.10
2022-09-28T15:15:08.518Z,16.04
2022-09-28T15:17:40.065Z,16.01
2022-09-28T15:20:32.396Z,15.98
2022-09-28T15:23:01.634Z,16.01
2022-09-28T15:25:31.792Z,15.99
2022-09-28T15:28:17.508Z,16.00
2022-09-28T15:30:47.479Z,15.97
2022-09-28T15:33:47.239Z,15.94
2022-09-28T15:36:33.635Z,15.89
2022-09-28T15:39:05.110Z,15.82
2022-09-28T15:41:33.393Z,15.84
2022-09-28T15:44:13.318Z,15.82
2022-09-28T15:46:43.737Z,15.83
2022-09-28T15:49:23.981Z,15.83
2022-09-28T15:51:54.772Z,15.85
2022-09-28T15:54:27.115Z,15.82
2022-09-28T15:57:00.000Z,15.71
2022-09-28T15:59:31.814Z,15.73
2022-09-28T16:02:12.035Z,15.69
2022-09-28T16:04:50.429Z,15.63
2022-09-28T16:07:56.075Z,15.57
2022-09-28T16:10:35.846Z,15.51
2022-09-28T16:13:17.837Z,15.49
2022-09-28T16:15:49.627Z,15.49
2022-09-28T16:18:23.615Z,15.42
2022-09-28T16:20:57.063Z,15.38
2022-09-28T16:23:36.614Z,15.28
2022-09-28T16:26:08.903Z,15.15
2022-09-28T16:28:39.266Z,15.17
2022-09-28T16:31:28.289Z,15.14
2022-09-28T16:34:11.654Z,15.11
2022-09-28T16:36:45.550Z,15.05
2022-09-28T16:39:19.703Z,15.07
2022-09-28T16:41:55.364Z,15.05
2022-09-28T16:44:27.029Z,15.08
2022-09-28T16:46:56.880Z,15.06
2022-09-28T16:49:26.351Z,15.08
2022-09-28T16:51:54.006Z,15.07
2022-09-28T16:54:41.879Z,15.06
2022-09-28T16:57:15.683Z,15.08
2022-09-28T16:59:43.349Z,15.04
2022-09-28T17:05:15.896Z,14.96
2022-09-28T17:07:45.570Z,14.90
2022-09-28T17:10:21.584Z,14.88
2022-09-28T17:12:50.252Z,14.92
2022-09-28T17:15:19.445Z,14.94
2022-09-28T17:17:48.582Z,14.92
2022-09-28T17:20:22.514Z,14.89
2022-09-28T17:22:51.433Z,14.92
2022-09-28T17:25:19.191Z,14.77
2022-09-28T17:27:48.791Z,14.72
2022-09-28T17:30:17.236Z,14.63
2022-09-28T17:32:47.509Z,14.53
2022-09-28T17:35:24.988Z,14.52
2022-09-28T17:37:53.240Z,14.42
2022-09-28T17:40:23.494Z,14.42
2022-09-28T17:42:51.023Z,14.33
2022-09-28T17:45:18.630Z,14.21
2022-09-28T17:47:46.519Z,14.10
2022-09-28T17:50:21.853Z,13.98
2022-09-28T17:52:52.474Z,13.84
2022-09-28T17:55:24.391Z,13.75
2022-09-28T17:57:51.978Z,13.69
2022-09-28T18:00:19.633Z,13.65
2022-09-28T18:02:48.657Z,13.55
2022-09-28T18:05:20.462Z,13.57
2022-09-28T18:07:49.840Z,13.56
2022-09-28T18:10:30.891Z,13.50
2022-09-28T18:12:58.496Z,13.43
2022-09-28T18:15:26.331Z,13.36
2022-09-28T18:17:53.907Z,13.34
2022-09-28T18:20:21.524Z,13.30
2022-09-28T18:22:49.102Z,13.27
2022-09-28T18:25:16.951Z,13.20
2022-09-28T18:27:44.658Z,13.14
2022-09-28T18:30:12.917Z,13.13
2022-09-28T18:32:40.548Z,13.14
2022-09-28T18:35:10.210Z,13.09
2022-09-28T18:37:40.931Z,13.06
2022-09-28T18:40:10.710Z,12.96
2022-09-28T18:42:38.357Z,12.98
2022-09-28T18:45:08.479Z,13.01
2022-09-28T18:47:36.179Z,12.91
2022-09-28T18:50:06.306Z,12.87
2022-09-28T18:52:37.128Z,12.92
2022-09-28T18:55:06.685Z,12.92
2022-09-28T18:57:34.522Z,12.95
2022-09-28T19:00:07.953Z,12.87
2022-09-28T19:02:36.304Z,12.88
2022-09-28T19:05:05.695Z,12.90
2022-09-28T19:07:35.915Z,12.83
2022-09-28T19:10:04.571Z,12.82
2022-09-28T19:12:33.637Z,12.80
2022-09-28T19:15:01.750Z,12.83
2022-09-28T19:17:31.767Z,12.86
2022-09-28T19:20:02.677Z,12.86
2022-09-28T19:22:32.615Z,12.80
2022-09-28T19:25:00.111Z,12.78
2022-09-28T19:27:27.678Z,12.75
2022-09-28T19:29:55.278Z,12.76
2022-09-28T19:32:22.835Z,12.73
2022-09-28T19:34:50.362Z,12.66
2022-09-28T19:37:17.924Z,12.75
2022-09-28T19:39:45.847Z,12.71
2022-09-28T19:42:13.390Z,12.68
2022-09-28T19:44:40.883Z,12.61
2022-09-28T19:47:12.995Z,12.63
2022-09-28T19:49:41.625Z,12.65
2022-09-28T19:52:19.019Z,12.60
2022-09-28T19:54:52.093Z,12.52
2022-09-28T19:57:22.640Z,12.52
2022-09-28T19:59:52.716Z,12.54
2022-09-28T20:02:22.583Z,12.57
2022-09-28T20:04:53.529Z,12.61
2022-09-28T20:07:21.630Z,12.62
2022-09-28T20:09:49.166Z,12.59
2022-09-28T20:12:16.813Z,12.57
2022-09-28T20:14:44.326Z,12.56
2022-09-28T20:17:11.837Z,12.58
2022-09-28T20:19:39.331Z,12.54
2022-09-28T20:22:08.148Z,12.48
2022-09-28T20:24:35.644Z,12.45
2022-09-28T20:27:03.142Z,12.45
2022-09-28T20:29:35.295Z,12.43
2022-09-28T20:32:04.039Z,12.45
2022-09-28T20:34:33.466Z,12.49
2022-09-28T20:37:01.009Z,12.45
2022-09-28T20:39:31.127Z,12.47
2022-09-28T20:41:58.704Z,12.48
2022-09-28T20:44:26.205Z,12.48
2022-09-28T20:46:53.749Z,12.52
2022-09-28T20:49:21.679Z,12.46
2022-09-28T20:51:49.193Z,12.50
2022-09-28T20:54:18.059Z,12.49
2022-09-28T20:56:48.256Z,12.48
2022-09-28T20:59:16.071Z,12.46
2022-09-28T21:01:43.715Z,12.46
2022-09-28T21:04:11.867Z,12.47
2022-09-28T21:06:43.000Z,12.46
2022-09-28T21:09:13.278Z,12.48
2022-09-28T21:11:41.621Z,12.50
2022-09-28T21:14:10.328Z,12.49
2022-09-28T21:16:38.071Z,12.50
2022-09-28T21:19:06.078Z,12.47
2022-09-28T21:21:33.678Z,12.48
2022-09-28T21:24:02.006Z,12.48
2022-09-28T21:26:31.163Z,12.45
2022-09-28T21:29:05.004Z,12.44
2022-09-28T21:31:38.750Z,12.40
2022-09-28T21:34:13.187Z,12.37
2022-09-28T21:36:43.203Z,12.34
2022-09-28T21:39:10.969Z,12.31
2022-09-28T21:41:41.226Z,12.26
2022-09-28T21:44:09.257Z,12.24
2022-09-28T21:46:39.826Z,12.20
2022-09-28T21:49:09.123Z,12.20
2022-09-28T21:51:37.596Z,12.17
2022-09-28T21:54:05.358Z,12.15
2022-09-28T21:56:35.347Z,12.13
2022-09-28T21:59:02.933Z,12.08
2022-09-28T22:01:31.778Z,12.07
2022-09-28T22:03:59.716Z,12.06
2022-09-28T22:06:29.616Z,12.09
2022-09-28T22:08:57.904Z,12.10
2022-09-28T22:11:29.483Z,12.10
2022-09-28T22:13:59.986Z,12.09
2022-09-28T22:16:30.377Z,12.11
2022-09-28T22:18:59.241Z,12.14
2022-09-28T22:21:35.009Z,12.16
2022-09-28T22:24:05.752Z,12.20
2022-09-28T22:26:35.443Z,12.18
2022-09-28T22:29:06.360Z,12.22
2022-09-28T22:31:37.169Z,12.22
2022-09-28T22:34:05.246Z,12.12
2022-09-28T22:36:32.795Z,12.23
2022-09-28T22:39:00.753Z,12.25
2022-09-28T22:41:32.096Z,12.23
2022-09-28T22:44:00.037Z,12.26
2022-09-28T22:46:31.870Z,12.25
2022-09-28T22:49:02.330Z,12.23
2022-09-28T22:51:31.636Z,12.22
2022-09-28T22:53:59.675Z,12.27
2022-09-28T22:56:27.250Z,12.22
2022-09-28T22:58:55.172Z,12.23
2022-09-28T23:01:31.472Z,12.27
2022-09-28T23:03:59.448Z,12.25
2022-09-28T23:06:30.354Z,12.26
2022-09-28T23:08:58.224Z,12.27
2022-09-28T23:11:29.293Z,12.26
2022-09-28T23:14:01.425Z,12.28
2022-09-28T23:16:30.160Z,12.28
2022-09-28T23:18:58.379Z,12.26
2022-09-28T23:21:29.310Z,12.31
2022-09-28T23:24:01.008Z,12.35
2022-09-28T23:26:32.970Z,12.38
2022-09-28T23:29:00.866Z,12.37
2022-09-28T23:31:31.075Z,12.39
2022-09-28T23:34:03.107Z,12.36
2022-09-28T23:36:31.425Z,12.37
2022-09-28T23:38:59.157Z,12.35
2022-09-28T23:41:29.127Z,12.34
2022-09-28T23:43:56.618Z,12.38
2022-09-28T23:46:24.364Z,12.41
2022-09-28T23:48:54.111Z,12.42
2022-09-28T23:51:21.780Z,12.42
2022-09-28T23:53:49.274Z,12.44
2022-09-28T23:56:17.033Z,12.46
2022-09-28T23:58:45.068Z,12.46
